Pioneer Knutsen — LMIK — position and weather

sailwx.info

Track history (hours):
 
Tides and Currents Weather Stations Pressure Air Temp Water Temp Dewpoint Dewpoint Depression Visibility Wind Speed Wind Dir Waves Ship Positions

Pioneer Knutsen

Last reported at 2017-Aug-17 05:59 UTC. Time now 2017-Aug-17 06:03 UTC.
Position N 61°04' E 004°59'.

Length 70 m; draft 3.6 m.

Type: Ship. MMSI: 259393000.

Date/timePositionNaut miles runAvg speedWind from/ knotsBaromVisibWave heightAir tempDewpointWater temp
2017-Aug-17 05:59N 61°04' E 004°59'510.5
2017-Aug-17 05:30N 61°09' E 005°01'5 9.9
2017-Aug-17 05:00N 61°14' E 004°56'4 8.9
2017-Aug-17 04:30N 61°18' E 004°59'4 8.6
2017-Aug-17 04:00N 61°22' E 005°02'510.3
2017-Aug-17 03:30N 61°27' E 004°58'611.0
2017-Aug-17 03:00N 61°32' E 004°60'5 9.3
2017-Aug-17 02:30N 61°37' E 004°59'3 6.0
2017-Aug-17 02:00N 61°37' E 005°05'0 0.0
2017-Aug-17 01:26N 61°37' E 005°05'0 0.0
2017-Aug-17 00:44N 61°37' E 005°05'0 0.0
2017-Aug-16 22:20N 61°37' E 005°05'2 5.2
2017-Aug-16 22:00N 61°38' E 005°02'3 5.2
2017-Aug-16 21:29N 61°35' E 005°00'0 0.0
2017-Aug-16 20:58N 61°35' E 005°00'0 0.0
2017-Aug-16 20:28N 61°35' E 005°00'0 0.0
2017-Aug-16 20:00N 61°35' E 005°00'0 0.0
2017-Aug-16 19:30N 61°35' E 005°00'0 0.0
2017-Aug-16 19:00N 61°35' E 005°00'0 0.0
2017-Aug-16 18:30N 61°35' E 005°00'0 0.6
2017-Aug-16 18:00N 61°35' E 004°60'4 7.8
2017-Aug-16 17:30N 61°31' E 005°00'612.0
2017-Aug-16 17:00N 61°25' E 004°58'612.0
2017-Aug-16 16:30N 61°20' E 005°03'510.4
2017-Aug-16 16:00N 61°17' E 004°55'611.6
2017-Aug-16 15:30N 61°11' E 005°01'612.2
2017-Aug-16 15:00N 61°05' E 005°01'612.0
2017-Aug-16 14:29N 61°01' E 004°52'611.6
2017-Aug-16 14:00N 60°56' E 004°46'612.1
2017-Aug-16 13:30N 60°50' E 004°45'612.0
2017-Aug-16 13:00N 60°44' E 004°48'612.5
2017-Aug-16 12:30N 60°39' E 004°53'511.1
2017-Aug-16 12:00N 60°33' E 004°53'0 0.2
2017-Aug-16 11:30N 60°33' E 004°53'0 0.0
2017-Aug-16 11:00N 60°33' E 004°53'0 0.0
2017-Aug-16 10:29N 60°33' E 004°53'0 0.0
2017-Aug-16 09:59N 60°33' E 004°53'0 0.0
2017-Aug-16 09:29N 60°33' E 004°53'0 0.0
2017-Aug-16 08:59N 60°33' E 004°53'0 0.0
2017-Aug-16 08:29N 60°33' E 004°53'0 0.0
2017-Aug-16 07:58N 60°33' E 004°53'0 0.0
2017-Aug-16 07:28N 60°33' E 004°53'0 0.0
2017-Aug-16 06:58N 60°33' E 004°53'0 0.0
2017-Aug-16 06:25N 60°33' E 004°53'0 0.0
2017-Aug-16 06:00N 60°33' E 004°53'0 0.0
2017-Aug-16 05:30N 60°33' E 004°53'2 4.7
2017-Aug-16 05:00N 60°35' E 004°53'4 8.7
2017-Aug-16 04:30N 60°39' E 004°51'4 8.9
2017-Aug-16 04:00N 60°44' E 004°48'5 9.5
2017-Aug-16 03:30N 60°48' E 004°44'5 9.2
2017-Aug-16 03:00N 60°53' E 004°46'510.0
2017-Aug-16 02:30N 60°58' E 004°46'4 8.5
2017-Aug-16 02:00N 61°01' E 004°50'4 9.1
2017-Aug-16 01:30N 61°03' E 004°58'5 9.5
2017-Aug-16 01:00N 61°06' E 005°07'1 2.2
2017-Aug-16 00:30N 61°06' E 005°05'2 3.5
2017-Aug-16 00:00N 61°06' E 005°09'3 6.4
2017-Aug-15 23:30N 61°09' E 005°06'4 8.1
2017-Aug-15 22:59N 61°12' E 005°00'4 8.1
2017-Aug-15 22:30N 61°15' E 004°55'4 7.0
2017-Aug-15 22:00N 61°18' E 004°60'1 2.8
2017-Aug-15 21:30N 61°17' E 004°57'4 7.9
2017-Aug-15 21:00N 61°20' E 005°04'5 9.1
2017-Aug-15 20:30N 61°24' E 004°60'4 8.7
2017-Aug-15 20:00N 61°28' E 004°59'4 8.7
2017-Aug-15 19:30N 61°32' E 004°60'4 8.0
2017-Aug-15 19:00N 61°36' E 004°58'4 8.4
2017-Aug-15 18:29N 61°41' E 004°57'4 7.7
2017-Aug-15 18:00N 61°44' E 004°58'4 7.8
2017-Aug-15 17:29N 61°47' E 005°04'4 7.7
2017-Aug-15 16:59N 61°49' E 005°11'3 6.8
2017-Aug-15 16:30N 61°52' E 005°15'4 8.6
2017-Aug-15 16:00N 61°54' E 005°08'4 8.5
2017-Aug-15 15:30N 61°58' E 005°09'5 9.2
2017-Aug-15 15:00N 62°03' E 005°08'5 9.9
2017-Aug-15 14:30N 62°08' E 005°05'4 8.5
2017-Aug-15 14:00N 62°12' E 005°06'4 7.8
2017-Aug-15 13:30N 62°13' E 005°14'5 9.2
2017-Aug-15 13:00N 62°10' E 005°21'4 8.3
2017-Aug-15 12:30N 62°12' E 005°29'5 9.3
2017-Aug-15 11:59N 62°11' E 005°39'6 9.9
2017-Aug-15 11:23N 62°13' E 005°51'3 8.9
2017-Aug-15 11:00N 62°15' E 005°57'5 9.1
2017-Aug-15 10:30N 62°19' E 006°03'4 7.1
2017-Aug-15 10:00N 62°22' E 006°05'4 7.8
2017-Aug-15 09:30N 62°26' E 006°02'4 7.8
2017-Aug-15 09:00N 62°29' E 006°07'4 8.2
2017-Aug-15 08:30N 62°29' E 006°16'3 7.0
2017-Aug-15 08:00N 62°29' E 006°23'0 0.0
2017-Aug-15 07:24N 62°29' E 006°23'0 0.0
2017-Aug-15 07:00N 62°29' E 006°23'0 0.0
2017-Aug-15 06:29N 62°29' E 006°23'0 0.0
2017-Aug-15 05:59N 62°29' E 006°23'0 0.0
2017-Aug-15 05:29N 62°29' E 006°23'0 0.0
2017-Aug-15 04:59N 62°29' E 006°23'0 0.0
2017-Aug-15 04:29N 62°29' E 006°23'0 0.0
2017-Aug-15 03:58N 62°29' E 006°23'0 0.0
2017-Aug-15 03:28N 62°29' E 006°23'0 0.0
2017-Aug-15 02:57N 62°29' E 006°23'0 0.0
2017-Aug-15 02:30N 62°29' E 006°23'4 7.4
2017-Aug-15 02:00N 62°29' E 006°15'611.3
2017-Aug-15 01:30N 62°28' E 006°03'611.5
2017-Aug-15 01:00N 62°22' E 006°07'510.2
2017-Aug-15 00:30N 62°18' E 006°02'611.4
2017-Aug-15 00:00N 62°13' E 005°54'610.8
2017-Aug-14 23:28N 62°11' E 005°43'610.3
2017-Aug-14 22:51N 62°12' E 005°29'411.7
2017-Aug-14 22:30N 62°10' E 005°22'611.1
2017-Aug-14 22:00N 62°13' E 005°12'5 9.9
2017-Aug-14 21:30N 62°10' E 005°04'511.2
2017-Aug-14 21:01N 62°05' E 005°07'611.3
2017-Aug-14 20:30N 61°59' E 005°10'510.8
2017-Aug-14 20:00N 61°54' E 005°10'5 9.5
2017-Aug-14 19:30N 61°50' E 005°15'611.9
2017-Aug-14 19:00N 61°47' E 005°04'611.6
2017-Aug-14 18:30N 61°42' E 004°58'611.5
2017-Aug-14 18:00N 61°36' E 004°58'511.0
2017-Aug-14 17:30N 61°31' E 005°00'611.9
2017-Aug-14 17:00N 61°25' E 004°58'612.0
2017-Aug-14 16:30N 61°19' E 005°04'510.6
2017-Aug-14 16:00N 61°16' E 004°55'611.8
2017-Aug-14 15:30N 61°11' E 005°01'2610.9
2017-Aug-14 13:07N 60°46' E 004°47'112.7
2017-Aug-14 13:00N 60°45' E 004°48'612.4
2017-Aug-14 12:30N 60°39' E 004°53'611.5
2017-Aug-14 12:00N 60°33' E 004°54'0 0.5
2017-Aug-14 11:28N 60°33' E 004°53'0 0.0
2017-Aug-14 10:58N 60°33' E 004°53'0 0.0
2017-Aug-14 10:28N 60°33' E 004°53'0 0.0
2017-Aug-14 10:00N 60°33' E 004°53'0 0.0
2017-Aug-14 09:30N 60°33' E 004°53'0 0.0
2017-Aug-14 09:00N 60°33' E 004°53'0 0.0
2017-Aug-14 08:30N 60°33' E 004°53'0 0.0
2017-Aug-14 07:59N 60°33' E 004°53'0 0.0
2017-Aug-14 07:29N 60°33' E 004°53'0 0.0
2017-Aug-14 06:59N 60°33' E 004°53'0 0.0
2017-Aug-14 06:29N 60°33' E 004°53'0 0.0
2017-Aug-14 05:59N 60°33' E 004°53'0 0.6
2017-Aug-14 05:30N 60°33' E 004°53'611.4
2017-Aug-14 05:00N 60°39' E 004°51'612.0
2017-Aug-14 04:30N 60°45' E 004°47'511.1
2017-Aug-14 04:00N 60°50' E 004°45'611.6
2017-Aug-14 03:30N 60°56' E 004°46'610.9
2017-Aug-14 03:00N 61°01' E 004°50'612.1
2017-Aug-14 02:30N 61°05' E 004°59'612.0
2017-Aug-14 02:00N 61°11' E 005°01'611.2
2017-Aug-14 01:30N 61°15' E 004°55'510.9
2017-Aug-14 01:00N 61°19' E 005°03'611.4
2017-Aug-14 00:30N 61°24' E 004°59'611.3
2017-Aug-14 00:00N 61°30' E 004°59'510.6
2017-Aug-13 23:30N 61°35' E 004°57'611.2
2017-Aug-13 22:59N 61°41' E 004°57'511.0
2017-Aug-13 22:29N 61°46' E 005°01'611.5
2017-Aug-13 22:00N 61°49' E 005°11'3 6.6
2017-Aug-13 21:30N 61°52' E 005°13'5 9.2
2017-Aug-13 21:00N 61°56' E 005°08'611.2
2017-Aug-13 20:29N 62°02' E 005°09'611.6
2017-Aug-13 20:00N 62°08' E 005°05'5 9.9
2017-Aug-13 19:30N 62°12' E 005°07'4 8.5
2017-Aug-13 19:00N 62°13' E 005°16'4 9.1
2017-Aug-13 18:30N 62°11' E 005°25'610.9
2017-Aug-13 18:00N 62°11' E 005°37'611.8
2017-Aug-13 17:30N 62°12' E 005°49'510.9
2017-Aug-13 17:01N 62°16' E 005°58'610.7
2017-Aug-13 16:30N 62°20' E 006°06'510.7
2017-Aug-13 15:59N 62°25' E 006°03'5 9.6
2017-Aug-13 15:30N 62°29' E 006°07'510.6
2017-Aug-13 15:00N 62°34' E 006°12'510.4
2017-Aug-13 14:30N 62°38' E 006°20'510.7
2017-Aug-13 14:00N 62°42' E 006°28'511.0
2017-Aug-13 13:30N 62°46' E 006°34'510.6
2017-Aug-13 13:01N 62°51' E 006°40'510.5
2017-Aug-13 12:30N 62°55' E 006°46'5 9.0
2017-Aug-13 12:00N 62°59' E 006°52'4 8.1
2017-Aug-13 11:30N 63°00' E 007°01'4 8.7
2017-Aug-13 11:00N 63°02' E 007°10'4 9.0
2017-Aug-13 10:30N 63°03' E 007°19'5 9.7
2017-Aug-13 10:01N 63°05' E 007°29'510.3
2017-Aug-13 09:30N 63°08' E 007°38'510.7
2017-Aug-13 09:00N 63°11' E 007°48'510.8
2017-Aug-13 08:30N 63°14' E 007°58'510.8
2017-Aug-13 08:00N 63°17' E 008°09'510.3
2017-Aug-13 07:30N 63°20' E 008°18'510.7
2017-Aug-13 07:00N 63°23' E 008°27'510.0
2017-Aug-13 06:30N 63°25' E 008°37'510.0
2017-Aug-13 06:00N 63°27' E 008°48'510.7
2017-Aug-13 05:29N 63°29' E 008°59'510.8
2017-Aug-13 05:01N 63°31' E 009°10'610.8
2017-Aug-13 04:30N 63°34' E 009°21'510.2
2017-Aug-13 04:01N 63°37' E 009°28'510.1
2017-Aug-13 03:31N 63°42' E 009°31'510.6
2017-Aug-13 03:00N 63°48' E 009°34'510.9
2017-Aug-13 02:30N 63°52' E 009°41'510.7
2017-Aug-13 02:00N 63°57' E 009°47'611.4
2017-Aug-13 01:31N 64°02' E 009°47'610.8
2017-Aug-13 01:00N 64°06' E 009°58'511.0
2017-Aug-13 00:30N 64°09' E 010°07'511.1
2017-Aug-13 00:01N 64°14' E 010°14'5 9.6
2017-Aug-12 23:31N 64°18' E 010°20'510.0
2017-Aug-12 23:00N 64°22' E 010°27'611.1
2017-Aug-12 22:30N 64°27' E 010°26'510.1
2017-Aug-12 22:00N 64°32' E 010°31'510.2
2017-Aug-12 21:30N 64°36' E 010°39'510.4
2017-Aug-12 21:00N 64°40' E 010°46'510.5
2017-Aug-12 20:30N 64°44' E 010°55'611.2
2017-Aug-12 20:00N 64°47' E 011°05'611.5
2017-Aug-12 19:30N 64°51' E 011°14'612.1
2017-Aug-12 19:01N 64°56' E 011°25'611.9
2017-Aug-12 18:30N 64°59' E 011°36'611.2
2017-Aug-12 18:00N 65°04' E 011°44'611.7
2017-Aug-12 17:30N 65°09' E 011°50'611.6
2017-Aug-12 17:00N 65°14' E 011°55'611.5
2017-Aug-12 16:30N 65°20' E 012°01'5 9.1
2017-Aug-12 16:00N 65°24' E 011°58'510.1
2017-Aug-12 15:30N 65°29' E 011°59'611.4
2017-Aug-12 15:00N 65°34' E 012°06'611.5
2017-Aug-12 14:30N 65°39' E 012°13'611.2
2017-Aug-12 13:59N 65°44' E 012°18'511.0
2017-Aug-12 13:30N 65°48' E 012°26'611.2
2017-Aug-12 13:00N 65°53' E 012°34'610.9
2017-Aug-12 12:30N 65°57' E 012°43'5 9.5
2017-Aug-12 11:59N 65°58' E 012°55'611.6
2017-Aug-12 11:29N 65°55' E 013°07'4 7.9
2017-Aug-12 11:00N 65°51' E 013°11'0 0.0
2017-Aug-12 10:30N 65°51' E 013°11'0 0.0
2017-Aug-12 09:57N 65°51' E 013°11'0 0.0
2017-Aug-12 09:30N 65°51' E 013°11'0 0.0
2017-Aug-12 09:00N 65°51' E 013°11'0 0.0
2017-Aug-12 08:29N 65°51' E 013°11'0 0.0
2017-Aug-12 08:00N 65°51' E 013°11'0 0.0
2017-Aug-12 07:30N 65°51' E 013°11'0 0.0
2017-Aug-12 07:00N 65°51' E 013°11'0 0.0
2017-Aug-12 06:30N 65°51' E 013°11'0 0.6
2017-Aug-12 06:00N 65°51' E 013°11'4 8.2
2017-Aug-12 05:30N 65°55' E 013°06'510.3
2017-Aug-12 05:00N 65°58' E 012°55'4 8.7
2017-Aug-12 04:30N 65°57' E 012°45'611.1
2017-Aug-12 04:00N 65°53' E 012°35'611.4
2017-Aug-12 03:29N 65°48' E 012°27'612.1
2017-Aug-12 03:00N 65°44' E 012°18'612.5
2017-Aug-12 02:30N 65°38' E 012°13'611.9
2017-Aug-12 02:00N 65°33' E 012°04'612.3
2017-Aug-12 01:29N 65°27' E 011°57'510.8
2017-Aug-12 01:00N 65°22' E 012°01'5 9.7
2017-Aug-12 00:30N 65°18' E 011°59'612.4
2017-Aug-12 00:00N 65°12' E 011°53'611.9
2017-Aug-11 23:30N 65°06' E 011°49'612.4
2017-Aug-11 23:00N 65°01' E 011°41'611.6
2017-Aug-11 22:30N 64°57' E 011°31'612.2
2017-Aug-11 22:00N 64°53' E 011°19'611.2
2017-Aug-11 21:30N 64°50' E 011°10'611.2
2017-Aug-11 21:00N 64°45' E 011°01'611.5
2017-Aug-11 20:30N 64°42' E 010°50'611.5
2017-Aug-11 20:00N 64°37' E 010°42'611.6
2017-Aug-11 19:30N 64°33' E 010°33'611.4
2017-Aug-11 19:00N 64°28' E 010°26'611.4
2017-Aug-11 18:30N 64°22' E 010°28'511.1
2017-Aug-11 18:00N 64°18' E 010°21'510.9
2017-Aug-11 17:30N 64°13' E 010°13'611.8
2017-Aug-11 17:00N 64°08' E 010°06'612.0
2017-Aug-11 16:30N 64°05' E 009°55'611.6
2017-Aug-11 16:01N 64°00' E 009°47'612.2
2017-Aug-11 15:30N 63°54' E 009°46'612.1
2017-Aug-11 15:00N 63°50' E 009°37'1 1.8
2017-Aug-11 14:29N 63°49' E 009°38'0 0.0
2017-Aug-11 13:30N 63°49' E 009°38'0 0.0
2017-Aug-11 13:00N 63°49' E 009°38'0 0.0
2017-Aug-11 12:29N 63°49' E 009°38'1 1.9
2017-Aug-11 12:00N 63°48' E 009°37'511.0
2017-Aug-11 11:30N 63°43' E 009°32'611.3
2017-Aug-11 11:00N 63°38' E 009°29'611.8
2017-Aug-11 10:30N 63°33' E 009°20'713.9
2017-Aug-11 10:00N 63°30' E 009°06'713.2
2017-Aug-11 09:30N 63°27' E 008°52'612.3
2017-Aug-11 09:00N 63°25' E 008°40'612.6
2017-Aug-11 08:30N 63°23' E 008°27'713.1
2017-Aug-11 08:00N 63°19' E 008°16'612.9
2017-Aug-11 07:30N 63°15' E 008°04'612.6
2017-Aug-11 07:00N 63°12' E 007°51'612.3
2017-Aug-11 06:30N 63°09' E 007°40'612.2
2017-Aug-11 06:00N 63°05' E 007°29'611.7
2017-Aug-11 05:31N 63°03' E 007°17'612.0
2017-Aug-11 05:00N 63°01' E 007°05'612.0
2017-Aug-11 04:30N 62°59' E 006°52'612.0
2017-Aug-11 04:00N 62°54' E 006°45'612.4
2017-Aug-11 03:30N 62°49' E 006°38'612.4
2017-Aug-11 03:00N 62°43' E 006°30'612.4
2017-Aug-11 02:30N 62°38' E 006°23'612.0
2017-Aug-11 01:59N 62°34' E 006°12'510.7
2017-Aug-11 01:30N 62°29' E 006°08'510.0
2017-Aug-11 01:01N 62°25' E 006°03'510.3
2017-Aug-11 00:29N 62°20' E 006°07'612.8
2017-Aug-11 00:01N 62°16' E 005°58'611.8
2017-Aug-10 23:30N 62°12' E 005°47'612.3
2017-Aug-10 23:00N 62°11' E 005°35'510.8
2017-Aug-10 22:31N 62°11' E 005°23'510.4
2017-Aug-10 22:00N 62°14' E 005°14'510.8
2017-Aug-10 21:30N 62°10' E 005°04'611.2
2017-Aug-10 21:00N 62°05' E 005°07'611.4
2017-Aug-10 20:30N 61°59' E 005°10'610.9
2017-Aug-10 20:00N 61°54' E 005°09'510.2
2017-Aug-10 19:31N 61°50' E 005°16'712.7
2017-Aug-10 19:00N 61°47' E 005°04'611.9
2017-Aug-10 18:30N 61°41' E 004°58'611.8
2017-Aug-10 18:00N 61°36' E 004°57'611.1
2017-Aug-10 17:30N 61°30' E 004°60'611.8
2017-Aug-10 17:00N 61°24' E 004°59'612.0
2017-Aug-10 16:30N 61°19' E 005°04'510.8
2017-Aug-10 16:00N 61°15' E 004°55'611.9
2017-Aug-10 15:30N 61°10' E 005°01'611.7
2017-Aug-10 15:01N 61°04' E 004°59'612.2
2017-Aug-10 14:30N 61°00' E 004°49'510.8
2017-Aug-10 14:00N 60°55' E 004°46'611.3
2017-Aug-10 13:30N 60°49' E 004°44'611.5
2017-Aug-10 13:00N 60°44' E 004°49'611.6
2017-Aug-10 12:30N 60°39' E 004°53'611.0
2017-Aug-10 12:00N 60°33' E 004°53'0 0.5
2017-Aug-10 11:29N 60°33' E 004°53'0 0.0
2017-Aug-10 10:59N 60°33' E 004°53'0 0.0
2017-Aug-10 10:29N 60°33' E 004°53'0 0.0
2017-Aug-10 09:58N 60°33' E 004°53'0 0.0
2017-Aug-10 09:28N 60°33' E 004°53'0 0.0
2017-Aug-10 08:58N 60°33' E 004°53'0 0.0
2017-Aug-10 08:28N 60°33' E 004°53'0 0.0
2017-Aug-10 07:55N 60°33' E 004°53'0 0.0
2017-Aug-10 07:30N 60°33' E 004°53'0 0.0
2017-Aug-10 07:00N 60°33' E 004°53'0 0.0
2017-Aug-10 06:30N 60°33' E 004°53'0 0.0
2017-Aug-10 06:00N 60°33' E 004°53'0 0.0
2017-Aug-10 05:30N 60°33' E 004°53'2 3.3
2017-Aug-10 05:00N 60°35' E 004°54'4 8.6
2017-Aug-10 04:30N 60°39' E 004°51'5 9.8
2017-Aug-10 04:01N 60°43' E 004°48'612.0
2017-Aug-10 03:30N 60°49' E 004°44'611.7
2017-Aug-10 03:01N 60°55' E 004°46'611.9
2017-Aug-10 02:30N 61°01' E 004°49'612.8
2017-Aug-10 02:01N 61°05' E 004°59'611.9
2017-Aug-10 01:30N 61°11' E 005°01'611.9
2017-Aug-10 01:00N 61°16' E 004°55'610.9
2017-Aug-10 00:30N 61°19' E 005°04'612.9
2017-Aug-10 00:00N 61°25' E 004°58'612.7
2017-Aug-09 23:30N 61°31' E 005°00'611.6
2017-Aug-09 23:00N 61°37' E 004°59'612.6
2017-Aug-09 22:30N 61°43' E 004°57'612.7
2017-Aug-09 22:01N 61°48' E 005°06'611.5
2017-Aug-09 21:30N 61°51' E 005°16'611.3
2017-Aug-09 21:00N 61°55' E 005°07'510.6
2017-Aug-09 20:30N 62°01' E 005°09'611.3
2017-Aug-09 20:00N 62°06' E 005°06'611.7
2017-Aug-09 19:30N 62°12' E 005°05'612.3
2017-Aug-09 19:00N 62°17' E 005°13'612.3
2017-Aug-09 18:30N 62°21' E 005°22'612.4
2017-Aug-09 18:00N 62°26' E 005°32'611.9
2017-Aug-09 17:30N 62°27' E 005°44'612.9
2017-Aug-09 17:00N 62°27' E 005°58'612.2
2017-Aug-09 16:30N 62°29' E 006°11'2 4.3
2017-Aug-09 15:58N 62°29' E 006°15'0 0.0
2017-Aug-09 15:28N 62°29' E 006°15'0 0.0
2017-Aug-09 14:58N 62°29' E 006°15'0 0.0
2017-Aug-09 14:28N 62°29' E 006°15'0 0.0
2017-Aug-09 13:58N 62°29' E 006°15'0 0.0
2017-Aug-09 13:30N 62°29' E 006°15'0 0.0
2017-Aug-09 13:00N 62°29' E 006°15'0 0.0
2017-Aug-09 12:29N 62°29' E 006°15'3 7.0
2017-Aug-09 12:00N 62°30' E 006°09'612.0
2017-Aug-09 11:30N 62°35' E 006°15'612.6
2017-Aug-09 11:00N 62°40' E 006°25'613.0
2017-Aug-09 10:30N 62°45' E 006°32'613.0
2017-Aug-09 10:00N 62°50' E 006°40'713.0
2017-Aug-09 09:30N 62°56' E 006°47'612.0
2017-Aug-09 09:00N 62°60' E 006°58'612.7
2017-Aug-09 08:31N 63°02' E 007°11'612.2
2017-Aug-09 08:00N 63°04' E 007°23'612.2
2017-Aug-09 07:30N 63°07' E 007°35'612.2
2017-Aug-09 07:00N 63°11' E 007°46'612.5
2017-Aug-09 06:30N 63°14' E 007°58'612.7
2017-Aug-09 06:00N 63°17' E 008°10'612.4
2017-Aug-09 05:30N 63°21' E 008°21'612.4
2017-Aug-09 05:00N 63°24' E 008°32'612.2
2017-Aug-09 04:30N 63°27' E 008°45'612.3
2017-Aug-09 04:00N 63°29' E 008°58'612.3
2017-Aug-09 03:30N 63°31' E 009°10'612.2
2017-Aug-09 03:00N 63°34' E 009°22'611.0
2017-Aug-09 02:30N 63°39' E 009°29'611.2
2017-Aug-09 02:00N 63°45' E 009°32'612.0
2017-Aug-09 01:30N 63°50' E 009°38'612.0
2017-Aug-09 01:00N 63°55' E 009°46'611.9
2017-Aug-09 00:30N 64°00' E 009°47'611.2
2017-Aug-08 23:59N 64°05' E 009°55'612.1
2017-Aug-08 23:30N 64°08' E 010°06'611.5
2017-Aug-08 23:00N 64°13' E 010°13'610.8
2017-Aug-08 22:30N 64°18' E 010°20'510.9
2017-Aug-08 22:00N 64°22' E 010°28'611.5
2017-Aug-08 21:30N 64°28' E 010°26'611.3
2017-Aug-08 21:00N 64°33' E 010°33'611.8
2017-Aug-08 20:30N 64°37' E 010°41'612.0
2017-Aug-08 19:59N 64°42' E 010°50'612.0
2017-Aug-08 19:30N 64°46' E 011°01'612.2
2017-Aug-08 19:00N 64°50' E 011°11'510.1
2017-Aug-08 18:30N 64°54' E 011°20'611.6
2017-Aug-08 18:00N 64°57' E 011°30'611.2
2017-Aug-08 17:30N 65°01' E 011°40'611.4
2017-Aug-08 17:00N 65°06' E 011°47'612.1
2017-Aug-08 16:30N 65°11' E 011°52'612.2
2017-Aug-08 16:00N 65°17' E 011°58'510.6
2017-Aug-08 15:30N 65°22' E 012°01'610.8
2017-Aug-08 15:00N 65°27' E 011°57'613.0
2017-Aug-08 14:30N 65°33' E 012°04'612.2
2017-Aug-08 14:00N 65°38' E 012°12'612.1
2017-Aug-08 13:29N 65°44' E 012°17'511.3
2017-Aug-08 13:00N 65°48' E 012°26'611.7
2017-Aug-08 12:30N 65°53' E 012°34'611.4
2017-Aug-08 12:00N 65°57' E 012°44'510.4
2017-Aug-08 11:30N 65°57' E 012°56'612.2
2017-Aug-08 11:00N 65°54' E 013°08'3 6.1
2017-Aug-08 10:30N 65°51' E 013°11'0 0.0
2017-Aug-08 10:00N 65°51' E 013°11'0 0.0
2017-Aug-08 09:30N 65°51' E 013°11'0 0.0
2017-Aug-08 09:00N 65°51' E 013°11'0 0.0
2017-Aug-08 08:30N 65°51' E 013°11'0 0.0
2017-Aug-08 07:53N 65°51' E 013°11'0 0.0
2017-Aug-08 07:29N 65°51' E 013°11'0 0.0
2017-Aug-08 06:56N 65°51' E 013°11'0 0.0
2017-Aug-08 06:26N 65°51' E 013°11'0 0.0
2017-Aug-08 05:59N 65°51' E 013°11'0 0.0
2017-Aug-08 05:28N 65°51' E 013°11'0 0.0
2017-Aug-08 04:55N 65°51' E 013°11'0 0.0
2017-Aug-08 04:25N 65°51' E 013°11'2 4.9
2017-Aug-08 04:00N 65°53' E 013°09'510.7
2017-Aug-08 03:30N 65°56' E 012°59'5 9.8
2017-Aug-08 03:00N 65°58' E 012°48'611.0
2017-Aug-08 02:30N 65°54' E 012°38'511.0
2017-Aug-08 02:00N 65°50' E 012°31'611.4
2017-Aug-08 01:30N 65°46' E 012°21'611.1
2017-Aug-08 01:00N 65°41' E 012°14'510.7
2017-Aug-08 00:30N 65°36' E 012°11'510.4
2017-Aug-08 00:00N 65°32' E 012°02'611.2
2017-Aug-07 23:30N 65°27' E 011°56'510.1
2017-Aug-07 23:00N 65°22' E 012°02'5 9.6
2017-Aug-07 22:30N 65°18' E 011°59'611.4
2017-Aug-07 22:00N 65°12' E 011°53'611.6
2017-Aug-07 21:30N 65°07' E 011°49'611.5
2017-Aug-07 21:00N 65°02' E 011°42'611.4
2017-Aug-07 20:30N 64°58' E 011°33'611.6
2017-Aug-07 20:00N 64°54' E 011°22'612.1
2017-Aug-07 19:30N 64°50' E 011°11'611.9
2017-Aug-07 19:00N 64°46' E 011°02'612.0
2017-Aug-07 18:29N 64°42' E 010°50'612.0
2017-Aug-07 18:00N 64°37' E 010°42'612.0
2017-Aug-07 17:30N 64°33' E 010°33'611.5
2017-Aug-07 17:00N 64°28' E 010°27'511.1
2017-Aug-07 16:30N 64°22' E 010°28'611.2
2017-Aug-07 16:00N 64°18' E 010°21'611.4
2017-Aug-07 15:30N 64°13' E 010°13'612.4
2017-Aug-07 15:00N 64°08' E 010°05'712.7
2017-Aug-07 14:29N 64°04' E 009°53'511.3
2017-Aug-07 14:00N 63°59' E 009°47'612.0
2017-Aug-07 13:30N 63°53' E 009°45'612.9
2017-Aug-07 13:00N 63°49' E 009°35'612.0
2017-Aug-07 12:30N 63°43' E 009°32'612.8
2017-Aug-07 12:00N 63°37' E 009°28'612.6
2017-Aug-07 11:30N 63°33' E 009°17'713.6
2017-Aug-07 11:00N 63°29' E 009°04'713.4
2017-Aug-07 10:30N 63°27' E 008°50'713.6
2017-Aug-07 10:00N 63°24' E 008°35'713.5
2017-Aug-07 09:30N 63°21' E 008°22'713.8
2017-Aug-07 09:00N 63°17' E 008°11'713.3
2017-Aug-07 08:30N 63°14' E 007°58'612.8
2017-Aug-07 08:00N 63°10' E 007°46'612.7
2017-Aug-07 07:30N 63°07' E 007°34'612.7
2017-Aug-07 07:00N 63°04' E 007°22'612.8
2017-Aug-07 06:30N 63°01' E 007°09'612.5
2017-Aug-07 06:00N 62°59' E 006°55'  
Track history (hours):
 
Tides and Currents Weather Stations Pressure Air Temp Water Temp Dewpoint Dewpoint Depression Visibility Wind Speed Wind Dir Waves Ship Positions

Pioneer Knutsen

Last reported at 2017-Aug-17 05:59 UTC. Time now 2017-Aug-17 06:03 UTC.
Position N 61°04' E 004°59'.

Length 70 m; draft 3.6 m.

Type: Ship. MMSI: 259393000.

Date/timePositionNaut miles runAvg speedWind from/ knotsBaromVisibWave heightAir tempDewpointWater temp
2017-Aug-17 05:59N 61°04' E 004°59'510.5
2017-Aug-17 05:30N 61°09' E 005°01'5 9.9
2017-Aug-17 05:00N 61°14' E 004°56'4 8.9
2017-Aug-17 04:30N 61°18' E 004°59'4 8.6
2017-Aug-17 04:00N 61°22' E 005°02'510.3
2017-Aug-17 03:30N 61°27' E 004°58'611.0
2017-Aug-17 03:00N 61°32' E 004°60'5 9.3
2017-Aug-17 02:30N 61°37' E 004°59'3 6.0
2017-Aug-17 02:00N 61°37' E 005°05'0 0.0
2017-Aug-17 01:26N 61°37' E 005°05'0 0.0
2017-Aug-17 00:44N 61°37' E 005°05'0 0.0
2017-Aug-16 22:20N 61°37' E 005°05'2 5.2
2017-Aug-16 22:00N 61°38' E 005°02'3 5.2
2017-Aug-16 21:29N 61°35' E 005°00'0 0.0
2017-Aug-16 20:58N 61°35' E 005°00'0 0.0
2017-Aug-16 20:28N 61°35' E 005°00'0 0.0
2017-Aug-16 20:00N 61°35' E 005°00'0 0.0
2017-Aug-16 19:30N 61°35' E 005°00'0 0.0
2017-Aug-16 19:00N 61°35' E 005°00'0 0.0
2017-Aug-16 18:30N 61°35' E 005°00'0 0.6
2017-Aug-16 18:00N 61°35' E 004°60'4 7.8
2017-Aug-16 17:30N 61°31' E 005°00'612.0
2017-Aug-16 17:00N 61°25' E 004°58'612.0
2017-Aug-16 16:30N 61°20' E 005°03'510.4
2017-Aug-16 16:00N 61°17' E 004°55'611.6
2017-Aug-16 15:30N 61°11' E 005°01'612.2
2017-Aug-16 15:00N 61°05' E 005°01'612.0
2017-Aug-16 14:29N 61°01' E 004°52'611.6
2017-Aug-16 14:00N 60°56' E 004°46'612.1
2017-Aug-16 13:30N 60°50' E 004°45'612.0
2017-Aug-16 13:00N 60°44' E 004°48'612.5
2017-Aug-16 12:30N 60°39' E 004°53'511.1
2017-Aug-16 12:00N 60°33' E 004°53'0 0.2
2017-Aug-16 11:30N 60°33' E 004°53'0 0.0
2017-Aug-16 11:00N 60°33' E 004°53'0 0.0
2017-Aug-16 10:29N 60°33' E 004°53'0 0.0
2017-Aug-16 09:59N 60°33' E 004°53'0 0.0
2017-Aug-16 09:29N 60°33' E 004°53'0 0.0
2017-Aug-16 08:59N 60°33' E 004°53'0 0.0
2017-Aug-16 08:29N 60°33' E 004°53'0 0.0
2017-Aug-16 07:58N 60°33' E 004°53'0 0.0
2017-Aug-16 07:28N 60°33' E 004°53'0 0.0
2017-Aug-16 06:58N 60°33' E 004°53'0 0.0
2017-Aug-16 06:25N 60°33' E 004°53'0 0.0
2017-Aug-16 06:00N 60°33' E 004°53'0 0.0
2017-Aug-16 05:30N 60°33' E 004°53'2 4.7
2017-Aug-16 05:00N 60°35' E 004°53'4 8.7
2017-Aug-16 04:30N 60°39' E 004°51'4 8.9
2017-Aug-16 04:00N 60°44' E 004°48'5 9.5
2017-Aug-16 03:30N 60°48' E 004°44'5 9.2
2017-Aug-16 03:00N 60°53' E 004°46'510.0
2017-Aug-16 02:30N 60°58' E 004°46'4 8.5
2017-Aug-16 02:00N 61°01' E 004°50'4 9.1
2017-Aug-16 01:30N 61°03' E 004°58'5 9.5
2017-Aug-16 01:00N 61°06' E 005°07'1 2.2
2017-Aug-16 00:30N 61°06' E 005°05'2 3.5
2017-Aug-16 00:00N 61°06' E 005°09'3 6.4
2017-Aug-15 23:30N 61°09' E 005°06'4 8.1
2017-Aug-15 22:59N 61°12' E 005°00'4 8.1
2017-Aug-15 22:30N 61°15' E 004°55'4 7.0
2017-Aug-15 22:00N 61°18' E 004°60'1 2.8
2017-Aug-15 21:30N 61°17' E 004°57'4 7.9
2017-Aug-15 21:00N 61°20' E 005°04'5 9.1
2017-Aug-15 20:30N 61°24' E 004°60'4 8.7
2017-Aug-15 20:00N 61°28' E 004°59'4 8.7
2017-Aug-15 19:30N 61°32' E 004°60'4 8.0
2017-Aug-15 19:00N 61°36' E 004°58'4 8.4
2017-Aug-15 18:29N 61°41' E 004°57'4 7.7
2017-Aug-15 18:00N 61°44' E 004°58'4 7.8
2017-Aug-15 17:29N 61°47' E 005°04'4 7.7
2017-Aug-15 16:59N 61°49' E 005°11'3 6.8
2017-Aug-15 16:30N 61°52' E 005°15'4 8.6
2017-Aug-15 16:00N 61°54' E 005°08'4 8.5
2017-Aug-15 15:30N 61°58' E 005°09'5 9.2
2017-Aug-15 15:00N 62°03' E 005°08'5 9.9
2017-Aug-15 14:30N 62°08' E 005°05'4 8.5
2017-Aug-15 14:00N 62°12' E 005°06'4 7.8
2017-Aug-15 13:30N 62°13' E 005°14'5 9.2
2017-Aug-15 13:00N 62°10' E 005°21'4 8.3
2017-Aug-15 12:30N 62°12' E 005°29'5 9.3
2017-Aug-15 11:59N 62°11' E 005°39'6 9.9
2017-Aug-15 11:23N 62°13' E 005°51'3 8.9
2017-Aug-15 11:00N 62°15' E 005°57'5 9.1
2017-Aug-15 10:30N 62°19' E 006°03'4 7.1
2017-Aug-15 10:00N 62°22' E 006°05'4 7.8
2017-Aug-15 09:30N 62°26' E 006°02'4 7.8
2017-Aug-15 09:00N 62°29' E 006°07'4 8.2
2017-Aug-15 08:30N 62°29' E 006°16'3 7.0
2017-Aug-15 08:00N 62°29' E 006°23'0 0.0
2017-Aug-15 07:24N 62°29' E 006°23'0 0.0
2017-Aug-15 07:00N 62°29' E 006°23'0 0.0
2017-Aug-15 06:29N 62°29' E 006°23'0 0.0
2017-Aug-15 05:59N 62°29' E 006°23'0 0.0
2017-Aug-15 05:29N 62°29' E 006°23'0 0.0
2017-Aug-15 04:59N 62°29' E 006°23'0 0.0
2017-Aug-15 04:29N 62°29' E 006°23'0 0.0
2017-Aug-15 03:58N 62°29' E 006°23'0 0.0
2017-Aug-15 03:28N 62°29' E 006°23'0 0.0
2017-Aug-15 02:57N 62°29' E 006°23'0 0.0
2017-Aug-15 02:30N 62°29' E 006°23'4 7.4
2017-Aug-15 02:00N 62°29' E 006°15'611.3
2017-Aug-15 01:30N 62°28' E 006°03'611.5
2017-Aug-15 01:00N 62°22' E 006°07'510.2
2017-Aug-15 00:30N 62°18' E 006°02'611.4
2017-Aug-15 00:00N 62°13' E 005°54'610.8
2017-Aug-14 23:28N 62°11' E 005°43'610.3
2017-Aug-14 22:51N 62°12' E 005°29'411.7
2017-Aug-14 22:30N 62°10' E 005°22'611.1
2017-Aug-14 22:00N 62°13' E 005°12'5 9.9
2017-Aug-14 21:30N 62°10' E 005°04'511.2
2017-Aug-14 21:01N 62°05' E 005°07'611.3
2017-Aug-14 20:30N 61°59' E 005°10'510.8
2017-Aug-14 20:00N 61°54' E 005°10'5 9.5
2017-Aug-14 19:30N 61°50' E 005°15'611.9
2017-Aug-14 19:00N 61°47' E 005°04'611.6
2017-Aug-14 18:30N 61°42' E 004°58'611.5
2017-Aug-14 18:00N 61°36' E 004°58'511.0
2017-Aug-14 17:30N 61°31' E 005°00'611.9
2017-Aug-14 17:00N 61°25' E 004°58'612.0
2017-Aug-14 16:30N 61°19' E 005°04'510.6
2017-Aug-14 16:00N 61°16' E 004°55'611.8
2017-Aug-14 15:30N 61°11' E 005°01'2610.9
2017-Aug-14 13:07N 60°46' E 004°47'112.7
2017-Aug-14 13:00N 60°45' E 004°48'612.4
2017-Aug-14 12:30N 60°39' E 004°53'611.5
2017-Aug-14 12:00N 60°33' E 004°54'0 0.5
2017-Aug-14 11:28N 60°33' E 004°53'0 0.0
2017-Aug-14 10:58N 60°33' E 004°53'0 0.0
2017-Aug-14 10:28N 60°33' E 004°53'0 0.0
2017-Aug-14 10:00N 60°33' E 004°53'0 0.0
2017-Aug-14 09:30N 60°33' E 004°53'0 0.0
2017-Aug-14 09:00N 60°33' E 004°53'0 0.0
2017-Aug-14 08:30N 60°33' E 004°53'0 0.0
2017-Aug-14 07:59N 60°33' E 004°53'0 0.0
2017-Aug-14 07:29N 60°33' E 004°53'0 0.0
2017-Aug-14 06:59N 60°33' E 004°53'0 0.0
2017-Aug-14 06:29N 60°33' E 004°53'0 0.0
2017-Aug-14 05:59N 60°33' E 004°53'0 0.6
2017-Aug-14 05:30N 60°33' E 004°53'611.4
2017-Aug-14 05:00N 60°39' E 004°51'612.0
2017-Aug-14 04:30N 60°45' E 004°47'511.1
2017-Aug-14 04:00N 60°50' E 004°45'611.6
2017-Aug-14 03:30N 60°56' E 004°46'610.9
2017-Aug-14 03:00N 61°01' E 004°50'612.1
2017-Aug-14 02:30N 61°05' E 004°59'612.0
2017-Aug-14 02:00N 61°11' E 005°01'611.2
2017-Aug-14 01:30N 61°15' E 004°55'510.9
2017-Aug-14 01:00N 61°19' E 005°03'611.4
2017-Aug-14 00:30N 61°24' E 004°59'611.3
2017-Aug-14 00:00N 61°30' E 004°59'510.6
2017-Aug-13 23:30N 61°35' E 004°57'611.2
2017-Aug-13 22:59N 61°41' E 004°57'511.0
2017-Aug-13 22:29N 61°46' E 005°01'611.5
2017-Aug-13 22:00N 61°49' E 005°11'3 6.6
2017-Aug-13 21:30N 61°52' E 005°13'5 9.2
2017-Aug-13 21:00N 61°56' E 005°08'611.2
2017-Aug-13 20:29N 62°02' E 005°09'611.6
2017-Aug-13 20:00N 62°08' E 005°05'5 9.9
2017-Aug-13 19:30N 62°12' E 005°07'4 8.5
2017-Aug-13 19:00N 62°13' E 005°16'4 9.1
2017-Aug-13 18:30N 62°11' E 005°25'610.9
2017-Aug-13 18:00N 62°11' E 005°37'611.8
2017-Aug-13 17:30N 62°12' E 005°49'510.9
2017-Aug-13 17:01N 62°16' E 005°58'610.7
2017-Aug-13 16:30N 62°20' E 006°06'510.7
2017-Aug-13 15:59N 62°25' E 006°03'5 9.6
2017-Aug-13 15:30N 62°29' E 006°07'510.6
2017-Aug-13 15:00N 62°34' E 006°12'510.4
2017-Aug-13 14:30N 62°38' E 006°20'510.7
2017-Aug-13 14:00N 62°42' E 006°28'511.0
2017-Aug-13 13:30N 62°46' E 006°34'510.6
2017-Aug-13 13:01N 62°51' E 006°40'510.5
2017-Aug-13 12:30N 62°55' E 006°46'5 9.0
2017-Aug-13 12:00N 62°59' E 006°52'4 8.1
2017-Aug-13 11:30N 63°00' E 007°01'4 8.7
2017-Aug-13 11:00N 63°02' E 007°10'4 9.0
2017-Aug-13 10:30N 63°03' E 007°19'5 9.7
2017-Aug-13 10:01N 63°05' E 007°29'510.3
2017-Aug-13 09:30N 63°08' E 007°38'510.7
2017-Aug-13 09:00N 63°11' E 007°48'510.8
2017-Aug-13 08:30N 63°14' E 007°58'510.8
2017-Aug-13 08:00N 63°17' E 008°09'510.3
2017-Aug-13 07:30N 63°20' E 008°18'510.7
2017-Aug-13 07:00N 63°23' E 008°27'510.0
2017-Aug-13 06:30N 63°25' E 008°37'510.0
2017-Aug-13 06:00N 63°27' E 008°48'510.7
2017-Aug-13 05:29N 63°29' E 008°59'510.8
2017-Aug-13 05:01N 63°31' E 009°10'610.8
2017-Aug-13 04:30N 63°34' E 009°21'510.2
2017-Aug-13 04:01N 63°37' E 009°28'510.1
2017-Aug-13 03:31N 63°42' E 009°31'510.6
2017-Aug-13 03:00N 63°48' E 009°34'510.9
2017-Aug-13 02:30N 63°52' E 009°41'510.7
2017-Aug-13 02:00N 63°57' E 009°47'611.4
2017-Aug-13 01:31N 64°02' E 009°47'610.8
2017-Aug-13 01:00N 64°06' E 009°58'511.0
2017-Aug-13 00:30N 64°09' E 010°07'511.1
2017-Aug-13 00:01N 64°14' E 010°14'5 9.6
2017-Aug-12 23:31N 64°18' E 010°20'510.0
2017-Aug-12 23:00N 64°22' E 010°27'611.1
2017-Aug-12 22:30N 64°27' E 010°26'510.1
2017-Aug-12 22:00N 64°32' E 010°31'510.2
2017-Aug-12 21:30N 64°36' E 010°39'510.4
2017-Aug-12 21:00N 64°40' E 010°46'510.5
2017-Aug-12 20:30N 64°44' E 010°55'611.2
2017-Aug-12 20:00N 64°47' E 011°05'611.5
2017-Aug-12 19:30N 64°51' E 011°14'612.1
2017-Aug-12 19:01N 64°56' E 011°25'611.9
2017-Aug-12 18:30N 64°59' E 011°36'611.2
2017-Aug-12 18:00N 65°04' E 011°44'611.7
2017-Aug-12 17:30N 65°09' E 011°50'611.6
2017-Aug-12 17:00N 65°14' E 011°55'611.5
2017-Aug-12 16:30N 65°20' E 012°01'5 9.1
2017-Aug-12 16:00N 65°24' E 011°58'510.1
2017-Aug-12 15:30N 65°29' E 011°59'611.4
2017-Aug-12 15:00N 65°34' E 012°06'611.5
2017-Aug-12 14:30N 65°39' E 012°13'611.2
2017-Aug-12 13:59N 65°44' E 012°18'511.0
2017-Aug-12 13:30N 65°48' E 012°26'611.2
2017-Aug-12 13:00N 65°53' E 012°34'610.9
2017-Aug-12 12:30N 65°57' E 012°43'5 9.5
2017-Aug-12 11:59N 65°58' E 012°55'611.6
2017-Aug-12 11:29N 65°55' E 013°07'4 7.9
2017-Aug-12 11:00N 65°51' E 013°11'0 0.0
2017-Aug-12 10:30N 65°51' E 013°11'0 0.0
2017-Aug-12 09:57N 65°51' E 013°11'0 0.0
2017-Aug-12 09:30N 65°51' E 013°11'0 0.0
2017-Aug-12 09:00N 65°51' E 013°11'0 0.0
2017-Aug-12 08:29N 65°51' E 013°11'0 0.0
2017-Aug-12 08:00N 65°51' E 013°11'0 0.0
2017-Aug-12 07:30N 65°51' E 013°11'0 0.0
2017-Aug-12 07:00N 65°51' E 013°11'0 0.0
2017-Aug-12 06:30N 65°51' E 013°11'0 0.6
2017-Aug-12 06:00N 65°51' E 013°11'4 8.2
2017-Aug-12 05:30N 65°55' E 013°06'510.3
2017-Aug-12 05:00N 65°58' E 012°55'4 8.7
2017-Aug-12 04:30N 65°57' E 012°45'611.1
2017-Aug-12 04:00N 65°53' E 012°35'611.4
2017-Aug-12 03:29N 65°48' E 012°27'612.1
2017-Aug-12 03:00N 65°44' E 012°18'612.5
2017-Aug-12 02:30N 65°38' E 012°13'611.9
2017-Aug-12 02:00N 65°33' E 012°04'612.3
2017-Aug-12 01:29N 65°27' E 011°57'510.8
2017-Aug-12 01:00N 65°22' E 012°01'5 9.7
2017-Aug-12 00:30N 65°18' E 011°59'612.4
2017-Aug-12 00:00N 65°12' E 011°53'611.9
2017-Aug-11 23:30N 65°06' E 011°49'612.4
2017-Aug-11 23:00N 65°01' E 011°41'611.6
2017-Aug-11 22:30N 64°57' E 011°31'612.2
2017-Aug-11 22:00N 64°53' E 011°19'611.2
2017-Aug-11 21:30N 64°50' E 011°10'611.2
2017-Aug-11 21:00N 64°45' E 011°01'611.5
2017-Aug-11 20:30N 64°42' E 010°50'611.5
2017-Aug-11 20:00N 64°37' E 010°42'611.6
2017-Aug-11 19:30N 64°33' E 010°33'611.4
2017-Aug-11 19:00N 64°28' E 010°26'611.4
2017-Aug-11 18:30N 64°22' E 010°28'511.1
2017-Aug-11 18:00N 64°18' E 010°21'510.9
2017-Aug-11 17:30N 64°13' E 010°13'611.8
2017-Aug-11 17:00N 64°08' E 010°06'612.0
2017-Aug-11 16:30N 64°05' E 009°55'611.6
2017-Aug-11 16:01N 64°00' E 009°47'612.2
2017-Aug-11 15:30N 63°54' E 009°46'612.1
2017-Aug-11 15:00N 63°50' E 009°37'1 1.8
2017-Aug-11 14:29N 63°49' E 009°38'0 0.0
2017-Aug-11 13:30N 63°49' E 009°38'0 0.0
2017-Aug-11 13:00N 63°49' E 009°38'0 0.0
2017-Aug-11 12:29N 63°49' E 009°38'1 1.9
2017-Aug-11 12:00N 63°48' E 009°37'511.0
2017-Aug-11 11:30N 63°43' E 009°32'611.3
2017-Aug-11 11:00N 63°38' E 009°29'611.8
2017-Aug-11 10:30N 63°33' E 009°20'713.9
2017-Aug-11 10:00N 63°30' E 009°06'713.2
2017-Aug-11 09:30N 63°27' E 008°52'612.3
2017-Aug-11 09:00N 63°25' E 008°40'612.6
2017-Aug-11 08:30N 63°23' E 008°27'713.1
2017-Aug-11 08:00N 63°19' E 008°16'612.9
2017-Aug-11 07:30N 63°15' E 008°04'612.6
2017-Aug-11 07:00N 63°12' E 007°51'612.3
2017-Aug-11 06:30N 63°09' E 007°40'612.2
2017-Aug-11 06:00N 63°05' E 007°29'611.7
2017-Aug-11 05:31N 63°03' E 007°17'612.0
2017-Aug-11 05:00N 63°01' E 007°05'612.0
2017-Aug-11 04:30N 62°59' E 006°52'612.0
2017-Aug-11 04:00N 62°54' E 006°45'612.4
2017-Aug-11 03:30N 62°49' E 006°38'612.4
2017-Aug-11 03:00N 62°43' E 006°30'612.4
2017-Aug-11 02:30N 62°38' E 006°23'612.0
2017-Aug-11 01:59N 62°34' E 006°12'510.7
2017-Aug-11 01:30N 62°29' E 006°08'510.0
2017-Aug-11 01:01N 62°25' E 006°03'510.3
2017-Aug-11 00:29N 62°20' E 006°07'612.8
2017-Aug-11 00:01N 62°16' E 005°58'611.8
2017-Aug-10 23:30N 62°12' E 005°47'612.3
2017-Aug-10 23:00N 62°11' E 005°35'510.8
2017-Aug-10 22:31N 62°11' E 005°23'510.4
2017-Aug-10 22:00N 62°14' E 005°14'510.8
2017-Aug-10 21:30N 62°10' E 005°04'611.2
2017-Aug-10 21:00N 62°05' E 005°07'611.4
2017-Aug-10 20:30N 61°59' E 005°10'610.9
2017-Aug-10 20:00N 61°54' E 005°09'510.2
2017-Aug-10 19:31N 61°50' E 005°16'712.7
2017-Aug-10 19:00N 61°47' E 005°04'611.9
2017-Aug-10 18:30N 61°41' E 004°58'611.8
2017-Aug-10 18:00N 61°36' E 004°57'611.1
2017-Aug-10 17:30N 61°30' E 004°60'611.8
2017-Aug-10 17:00N 61°24' E 004°59'612.0
2017-Aug-10 16:30N 61°19' E 005°04'510.8
2017-Aug-10 16:00N 61°15' E 004°55'611.9
2017-Aug-10 15:30N 61°10' E 005°01'611.7
2017-Aug-10 15:01N 61°04' E 004°59'612.2
2017-Aug-10 14:30N 61°00' E 004°49'510.8
2017-Aug-10 14:00N 60°55' E 004°46'611.3
2017-Aug-10 13:30N 60°49' E 004°44'611.5
2017-Aug-10 13:00N 60°44' E 004°49'611.6
2017-Aug-10 12:30N 60°39' E 004°53'611.0
2017-Aug-10 12:00N 60°33' E 004°53'0 0.5
2017-Aug-10 11:29N 60°33' E 004°53'0 0.0
2017-Aug-10 10:59N 60°33' E 004°53'0 0.0
2017-Aug-10 10:29N 60°33' E 004°53'0 0.0
2017-Aug-10 09:58N 60°33' E 004°53'0 0.0
2017-Aug-10 09:28N 60°33' E 004°53'0 0.0
2017-Aug-10 08:58N 60°33' E 004°53'0 0.0
2017-Aug-10 08:28N 60°33' E 004°53'0 0.0
2017-Aug-10 07:55N 60°33' E 004°53'0 0.0
2017-Aug-10 07:30N 60°33' E 004°53'0 0.0
2017-Aug-10 07:00N 60°33' E 004°53'0 0.0
2017-Aug-10 06:30N 60°33' E 004°53'0 0.0
2017-Aug-10 06:00N 60°33' E 004°53'0 0.0
2017-Aug-10 05:30N 60°33' E 004°53'2 3.3
2017-Aug-10 05:00N 60°35' E 004°54'4 8.6
2017-Aug-10 04:30N 60°39' E 004°51'5 9.8
2017-Aug-10 04:01N 60°43' E 004°48'612.0
2017-Aug-10 03:30N 60°49' E 004°44'611.7
2017-Aug-10 03:01N 60°55' E 004°46'611.9
2017-Aug-10 02:30N 61°01' E 004°49'612.8
2017-Aug-10 02:01N 61°05' E 004°59'611.9
2017-Aug-10 01:30N 61°11' E 005°01'611.9
2017-Aug-10 01:00N 61°16' E 004°55'610.9
2017-Aug-10 00:30N 61°19' E 005°04'612.9
2017-Aug-10 00:00N 61°25' E 004°58'612.7
2017-Aug-09 23:30N 61°31' E 005°00'611.6
2017-Aug-09 23:00N 61°37' E 004°59'612.6
2017-Aug-09 22:30N 61°43' E 004°57'612.7
2017-Aug-09 22:01N 61°48' E 005°06'611.5
2017-Aug-09 21:30N 61°51' E 005°16'611.3
2017-Aug-09 21:00N 61°55' E 005°07'510.6
2017-Aug-09 20:30N 62°01' E 005°09'611.3
2017-Aug-09 20:00N 62°06' E 005°06'611.7
2017-Aug-09 19:30N 62°12' E 005°05'612.3
2017-Aug-09 19:00N 62°17' E 005°13'612.3
2017-Aug-09 18:30N 62°21' E 005°22'612.4
2017-Aug-09 18:00N 62°26' E 005°32'611.9
2017-Aug-09 17:30N 62°27' E 005°44'612.9
2017-Aug-09 17:00N 62°27' E 005°58'612.2
2017-Aug-09 16:30N 62°29' E 006°11'2 4.3
2017-Aug-09 15:58N 62°29' E 006°15'0 0.0
2017-Aug-09 15:28N 62°29' E 006°15'0 0.0
2017-Aug-09 14:58N 62°29' E 006°15'0 0.0
2017-Aug-09 14:28N 62°29' E 006°15'0 0.0
2017-Aug-09 13:58N 62°29' E 006°15'0 0.0
2017-Aug-09 13:30N 62°29' E 006°15'0 0.0
2017-Aug-09 13:00N 62°29' E 006°15'0 0.0
2017-Aug-09 12:29N 62°29' E 006°15'3 7.0
2017-Aug-09 12:00N 62°30' E 006°09'612.0
2017-Aug-09 11:30N 62°35' E 006°15'612.6
2017-Aug-09 11:00N 62°40' E 006°25'613.0
2017-Aug-09 10:30N 62°45' E 006°32'613.0
2017-Aug-09 10:00N 62°50' E 006°40'713.0
2017-Aug-09 09:30N 62°56' E 006°47'612.0
2017-Aug-09 09:00N 62°60' E 006°58'612.7
2017-Aug-09 08:31N 63°02' E 007°11'612.2
2017-Aug-09 08:00N 63°04' E 007°23'612.2
2017-Aug-09 07:30N 63°07' E 007°35'612.2
2017-Aug-09 07:00N 63°11' E 007°46'612.5
2017-Aug-09 06:30N 63°14' E 007°58'612.7
2017-Aug-09 06:00N 63°17' E 008°10'612.4
2017-Aug-09 05:30N 63°21' E 008°21'612.4
2017-Aug-09 05:00N 63°24' E 008°32'612.2
2017-Aug-09 04:30N 63°27' E 008°45'612.3
2017-Aug-09 04:00N 63°29' E 008°58'612.3
2017-Aug-09 03:30N 63°31' E 009°10'612.2
2017-Aug-09 03:00N 63°34' E 009°22'611.0
2017-Aug-09 02:30N 63°39' E 009°29'611.2
2017-Aug-09 02:00N 63°45' E 009°32'612.0
2017-Aug-09 01:30N 63°50' E 009°38'612.0
2017-Aug-09 01:00N 63°55' E 009°46'611.9
2017-Aug-09 00:30N 64°00' E 009°47'611.2
2017-Aug-08 23:59N 64°05' E 009°55'612.1
2017-Aug-08 23:30N 64°08' E 010°06'611.5
2017-Aug-08 23:00N 64°13' E 010°13'610.8
2017-Aug-08 22:30N 64°18' E 010°20'510.9
2017-Aug-08 22:00N 64°22' E 010°28'611.5
2017-Aug-08 21:30N 64°28' E 010°26'611.3
2017-Aug-08 21:00N 64°33' E 010°33'611.8
2017-Aug-08 20:30N 64°37' E 010°41'612.0
2017-Aug-08 19:59N 64°42' E 010°50'612.0
2017-Aug-08 19:30N 64°46' E 011°01'612.2
2017-Aug-08 19:00N 64°50' E 011°11'510.1
2017-Aug-08 18:30N 64°54' E 011°20'611.6
2017-Aug-08 18:00N 64°57' E 011°30'611.2
2017-Aug-08 17:30N 65°01' E 011°40'611.4
2017-Aug-08 17:00N 65°06' E 011°47'612.1
2017-Aug-08 16:30N 65°11' E 011°52'612.2
2017-Aug-08 16:00N 65°17' E 011°58'510.6
2017-Aug-08 15:30N 65°22' E 012°01'610.8
2017-Aug-08 15:00N 65°27' E 011°57'613.0
2017-Aug-08 14:30N 65°33' E 012°04'612.2
2017-Aug-08 14:00N 65°38' E 012°12'612.1
2017-Aug-08 13:29N 65°44' E 012°17'511.3
2017-Aug-08 13:00N 65°48' E 012°26'611.7
2017-Aug-08 12:30N 65°53' E 012°34'611.4
2017-Aug-08 12:00N 65°57' E 012°44'510.4
2017-Aug-08 11:30N 65°57' E 012°56'612.2
2017-Aug-08 11:00N 65°54' E 013°08'3 6.1
2017-Aug-08 10:30N 65°51' E 013°11'0 0.0
2017-Aug-08 10:00N 65°51' E 013°11'0 0.0
2017-Aug-08 09:30N 65°51' E 013°11'0 0.0
2017-Aug-08 09:00N 65°51' E 013°11'0 0.0
2017-Aug-08 08:30N 65°51' E 013°11'0 0.0
2017-Aug-08 07:53N 65°51' E 013°11'0 0.0
2017-Aug-08 07:29N 65°51' E 013°11'0 0.0
2017-Aug-08 06:56N 65°51' E 013°11'0 0.0
2017-Aug-08 06:26N 65°51' E 013°11'0 0.0
2017-Aug-08 05:59N 65°51' E 013°11'0 0.0
2017-Aug-08 05:28N 65°51' E 013°11'0 0.0
2017-Aug-08 04:55N 65°51' E 013°11'0 0.0
2017-Aug-08 04:25N 65°51' E 013°11'2 4.9
2017-Aug-08 04:00N 65°53' E 013°09'510.7
2017-Aug-08 03:30N 65°56' E 012°59'5 9.8
2017-Aug-08 03:00N 65°58' E 012°48'611.0
2017-Aug-08 02:30N 65°54' E 012°38'511.0
2017-Aug-08 02:00N 65°50' E 012°31'611.4
2017-Aug-08 01:30N 65°46' E 012°21'611.1
2017-Aug-08 01:00N 65°41' E 012°14'510.7
2017-Aug-08 00:30N 65°36' E 012°11'510.4
2017-Aug-08 00:00N 65°32' E 012°02'611.2
2017-Aug-07 23:30N 65°27' E 011°56'510.1
2017-Aug-07 23:00N 65°22' E 012°02'5 9.6
2017-Aug-07 22:30N 65°18' E 011°59'611.4
2017-Aug-07 22:00N 65°12' E 011°53'611.6
2017-Aug-07 21:30N 65°07' E 011°49'611.5
2017-Aug-07 21:00N 65°02' E 011°42'611.4
2017-Aug-07 20:30N 64°58' E 011°33'611.6
2017-Aug-07 20:00N 64°54' E 011°22'612.1
2017-Aug-07 19:30N 64°50' E 011°11'611.9
2017-Aug-07 19:00N 64°46' E 011°02'612.0
2017-Aug-07 18:29N 64°42' E 010°50'612.0
2017-Aug-07 18:00N 64°37' E 010°42'612.0
2017-Aug-07 17:30N 64°33' E 010°33'611.5
2017-Aug-07 17:00N 64°28' E 010°27'511.1
2017-Aug-07 16:30N 64°22' E 010°28'611.2
2017-Aug-07 16:00N 64°18' E 010°21'611.4
2017-Aug-07 15:30N 64°13' E 010°13'612.4
2017-Aug-07 15:00N 64°08' E 010°05'712.7
2017-Aug-07 14:29N 64°04' E 009°53'511.3
2017-Aug-07 14:00N 63°59' E 009°47'612.0
2017-Aug-07 13:30N 63°53' E 009°45'612.9
2017-Aug-07 13:00N 63°49' E 009°35'612.0
2017-Aug-07 12:30N 63°43' E 009°32'612.8
2017-Aug-07 12:00N 63°37' E 009°28'612.6
2017-Aug-07 11:30N 63°33' E 009°17'713.6
2017-Aug-07 11:00N 63°29' E 009°04'713.4
2017-Aug-07 10:30N 63°27' E 008°50'713.6
2017-Aug-07 10:00N 63°24' E 008°35'713.5
2017-Aug-07 09:30N 63°21' E 008°22'713.8
2017-Aug-07 09:00N 63°17' E 008°11'713.3
2017-Aug-07 08:30N 63°14' E 007°58'612.8
2017-Aug-07 08:00N 63°10' E 007°46'612.7
2017-Aug-07 07:30N 63°07' E 007°34'612.7
2017-Aug-07 07:00N 63°04' E 007°22'612.8
2017-Aug-07 06:30N 63°01' E 007°09'612.5
2017-Aug-07 06:00N 62°59' E 006°55'  

Dump ship's entire track history